sensor_id;sensor_type;location;lat;lon;timestamp;temperature;humidity
13123;DHT22;6627;50.920;12.050;2023-04-24T00:00:21;11.80;99.90
13123;DHT22;6627;50.920;12.050;2023-04-24T00:02:51;11.60;99.90
13123;DHT22;6627;50.920;12.050;2023-04-24T00:05:23;11.60;99.90
13123;DHT22;6627;50.920;12.050;2023-04-24T00:07:50;11.60;99.90
13123;DHT22;6627;50.920;12.050;2023-04-24T00:10:19;11.50;99.90
13123;DHT22;6627;50.920;12.050;2023-04-24T00:12:47;11.60;99.90
13123;DHT22;6627;50.920;12.050;2023-04-24T00:15:14;11.60;99.90
13123;DHT22;6627;50.920;12.050;2023-04-24T00:17:41;11.60;99.90
13123;DHT22;6627;50.920;12.050;2023-04-24T00:20:10;11.60;99.90
13123;DHT22;6627;50.920;12.050;2023-04-24T00:22:37;11.60;99.90
13123;DHT22;6627;50.920;12.050;2023-04-24T00:25:06;11.60;99.90
13123;DHT22;6627;50.920;12.050;2023-04-24T00:27:34;11.60;99.90
13123;DHT22;6627;50.920;12.050;2023-04-24T00:30:03;11.90;99.90
13123;DHT22;6627;50.920;12.050;2023-04-24T00:32:33;11.90;99.90
13123;DHT22;6627;50.920;12.050;2023-04-24T00:37:29;12.00;99.90
13123;DHT22;6627;50.920;12.050;2023-04-24T00:39:57;12.10;99.90
13123;DHT22;6627;50.920;12.050;2023-04-24T00:42:24;12.00;99.90
13123;DHT22;6627;50.920;12.050;2023-04-24T00:44:52;12.00;99.90
13123;DHT22;6627;50.920;12.050;2023-04-24T00:49:49;12.00;99.90
13123;DHT22;6627;50.920;12.050;2023-04-24T00:52:16;12.10;99.90
13123;DHT22;6627;50.920;12.050;2023-04-24T00:54:45;12.10;99.90
13123;DHT22;6627;50.920;12.050;2023-04-24T00:57:13;12.10;99.90
13123;DHT22;6627;50.920;12.050;2023-04-24T00:59:41;12.00;99.90
13123;DHT22;6627;50.920;12.050;2023-04-24T01:07:06;11.90;99.90
13123;DHT22;6627;50.920;12.050;2023-04-24T01:09:37;12.00;99.90
13123;DHT22;6627;50.920;12.050;2023-04-24T01:12:08;11.90;99.90
13123;DHT22;6627;50.920;12.050;2023-04-24T01:14:36;11.90;99.90
13123;DHT22;6627;50.920;12.050;2023-04-24T01:17:04;11.90;99.90
13123;DHT22;6627;50.920;12.050;2023-04-24T01:19:31;11.90;99.90
13123;DHT22;6627;50.920;12.050;2023-04-24T01:22:02;11.90;99.90
13123;DHT22;6627;50.920;12.050;2023-04-24T01:24:31;11.90;99.90
13123;DHT22;6627;50.920;12.050;2023-04-24T01:29:26;11.90;99.90
13123;DHT22;6627;50.920;12.050;2023-04-24T01:31:55;11.90;99.90
13123;DHT22;6627;50.920;12.050;2023-04-24T01:34:24;11.80;99.90
13123;DHT22;6627;50.920;12.050;2023-04-24T01:36:52;11.80;99.90
13123;DHT22;6627;50.920;12.050;2023-04-24T01:39:19;11.80;99.90
13123;DHT22;6627;50.920;12.050;2023-04-24T01:41:50;11.80;99.90
13123;DHT22;6627;50.920;12.050;2023-04-24T01:44:17;11.80;99.90
13123;DHT22;6627;50.920;12.050;2023-04-24T01:46:45;11.70;99.90
13123;DHT22;6627;50.920;12.050;2023-04-24T01:49:13;11.70;99.90
13123;DHT22;6627;50.920;12.050;2023-04-24T01:51:40;11.70;99.90
13123;DHT22;6627;50.920;12.050;2023-04-24T01:54:07;11.70;99.90
13123;DHT22;6627;50.920;12.050;2023-04-24T01:59:04;11.70;99.90
13123;DHT22;6627;50.920;12.050;2023-04-24T02:01:36;11.70;99.90
13123;DHT22;6627;50.920;12.050;2023-04-24T02:04:05;11.70;99.90
13123;DHT22;6627;50.920;12.050;2023-04-24T02:06:33;11.80;99.90
13123;DHT22;6627;50.920;12.050;2023-04-24T02:09:00;11.70;99.90
13123;DHT22;6627;50.920;12.050;2023-04-24T02:11:29;11.70;99.90
13123;DHT22;6627;50.920;12.050;2023-04-24T02:13:56;11.80;99.90
13123;DHT22;6627;50.920;12.050;2023-04-24T02:16:24;11.80;99.90
13123;DHT22;6627;50.920;12.050;2023-04-24T02:18:52;11.70;99.90
13123;DHT22;6627;50.920;12.050;2023-04-24T02:21:19;11.70;99.90
13123;DHT22;6627;50.920;12.050;2023-04-24T02:26:14;11.60;99.90
13123;DHT22;6627;50.920;12.050;2023-04-24T02:28:42;11.60;99.90
13123;DHT22;6627;50.920;12.050;2023-04-24T02:31:09;11.60;99.90
13123;DHT22;6627;50.920;12.050;2023-04-24T02:33:38;11.60;99.90
13123;DHT22;6627;50.920;12.050;2023-04-24T02:36:05;11.60;99.90
13123;DHT22;6627;50.920;12.050;2023-04-24T02:38:33;11.40;99.90
13123;DHT22;6627;50.920;12.050;2023-04-24T02:41:00;11.30;99.90
13123;DHT22;6627;50.920;12.050;2023-04-24T02:43:32;11.30;99.90
13123;DHT22;6627;50.920;12.050;2023-04-24T02:45:59;11.00;99.90
13123;DHT22;6627;50.920;12.050;2023-04-24T02:48:26;10.80;99.90
13123;DHT22;6627;50.920;12.050;2023-04-24T02:50:55;10.60;99.90
13123;DHT22;6627;50.920;12.050;2023-04-24T02:53:23;10.40;99.90
13123;DHT22;6627;50.920;12.050;2023-04-24T02:55:51;10.40;99.90
13123;DHT22;6627;50.920;12.050;2023-04-24T02:58:19;10.30;99.90
13123;DHT22;6627;50.920;12.050;2023-04-24T03:00:46;10.30;99.90
13123;DHT22;6627;50.920;12.050;2023-04-24T03:03:14;10.30;99.90
13123;DHT22;6627;50.920;12.050;2023-04-24T03:05:41;10.30;99.90
13123;DHT22;6627;50.920;12.050;2023-04-24T03:08:10;10.50;99.90
13123;DHT22;6627;50.920;12.050;2023-04-24T03:10:37;10.40;99.90
13123;DHT22;6627;50.920;12.050;2023-04-24T03:13:04;10.30;99.90
13123;DHT22;6627;50.920;12.050;2023-04-24T03:15:32;10.30;99.90
13123;DHT22;6627;50.920;12.050;2023-04-24T03:17:59;10.20;99.90
13123;DHT22;6627;50.920;12.050;2023-04-24T03:20:28;10.30;99.90
13123;DHT22;6627;50.920;12.050;2023-04-24T03:22:56;10.50;99.90
13123;DHT22;6627;50.920;12.050;2023-04-24T03:25:24;10.60;99.90
13123;DHT22;6627;50.920;12.050;2023-04-24T03:27:51;10.70;99.90
13123;DHT22;6627;50.920;12.050;2023-04-24T03:30:20;10.70;99.90
13123;DHT22;6627;50.920;12.050;2023-04-24T03:32:48;10.70;99.90
13123;DHT22;6627;50.920;12.050;2023-04-24T03:35:15;10.70;99.90
13123;DHT22;6627;50.920;12.050;2023-04-24T03:37:42;10.70;99.90
13123;DHT22;6627;50.920;12.050;2023-04-24T03:40:09;10.80;99.90
13123;DHT22;6627;50.920;12.050;2023-04-24T03:42:39;10.80;99.90
13123;DHT22;6627;50.920;12.050;2023-04-24T03:45:08;10.70;99.90
13123;DHT22;6627;50.920;12.050;2023-04-24T03:47:36;10.60;99.90
13123;DHT22;6627;50.920;12.050;2023-04-24T03:50:03;10.70;99.90
13123;DHT22;6627;50.920;12.050;2023-04-24T03:52:31;10.60;99.90
13123;DHT22;6627;50.920;12.050;2023-04-24T03:54:58;10.40;99.90
13123;DHT22;6627;50.920;12.050;2023-04-24T03:57:25;10.40;99.90
13123;DHT22;6627;50.920;12.050;2023-04-24T03:59:54;10.40;99.90
13123;DHT22;6627;50.920;12.050;2023-04-24T04:02:21;10.50;99.90
13123;DHT22;6627;50.920;12.050;2023-04-24T04:04:48;10.50;99.90
13123;DHT22;6627;50.920;12.050;2023-04-24T04:09:43;10.50;99.90
13123;DHT22;6627;50.920;12.050;2023-04-24T04:12:11;10.40;99.90
13123;DHT22;6627;50.920;12.050;2023-04-24T04:14:38;10.30;99.90
13123;DHT22;6627;50.920;12.050;2023-04-24T04:17:07;10.20;99.90
13123;DHT22;6627;50.920;12.050;2023-04-24T04:19:34;10.30;99.90
13123;DHT22;6627;50.920;12.050;2023-04-24T04:22:02;10.30;99.90
13123;DHT22;6627;50.920;12.050;2023-04-24T04:24:29;10.30;99.90
13123;DHT22;6627;50.920;12.050;2023-04-24T04:26:56;10.30;99.90
13123;DHT22;6627;50.920;12.050;2023-04-24T04:31:51;10.30;99.90
13123;DHT22;6627;50.920;12.050;2023-04-24T04:34:20;10.30;99.90
13123;DHT22;6627;50.920;12.050;2023-04-24T04:39:16;10.50;99.90
13123;DHT22;6627;50.920;12.050;2023-04-24T04:41:44;10.60;99.90
13123;DHT22;6627;50.920;12.050;2023-04-24T04:44:14;10.70;99.90
13123;DHT22;6627;50.920;12.050;2023-04-24T04:46:41;10.80;99.90
13123;DHT22;6627;50.920;12.050;2023-04-24T04:49:10;10.80;99.90
13123;DHT22;6627;50.920;12.050;2023-04-24T04:51:38;10.80;99.90
13123;DHT22;6627;50.920;12.050;2023-04-24T04:54:05;10.80;99.90
13123;DHT22;6627;50.920;12.050;2023-04-24T04:56:34;10.80;99.90
13123;DHT22;6627;50.920;12.050;2023-04-24T04:59:01;10.80;99.90
13123;DHT22;6627;50.920;12.050;2023-04-24T05:01:29;10.70;99.90
13123;DHT22;6627;50.920;12.050;2023-04-24T05:03:56;10.80;99.90
13123;DHT22;6627;50.920;12.050;2023-04-24T05:06:23;10.90;99.90
13123;DHT22;6627;50.920;12.050;2023-04-24T05:08:59;10.90;99.90
13123;DHT22;6627;50.920;12.050;2023-04-24T05:11:27;10.90;99.90
13123;DHT22;6627;50.920;12.050;2023-04-24T05:13:54;10.90;99.90
13123;DHT22;6627;50.920;12.050;2023-04-24T05:16:21;10.90;99.90
13123;DHT22;6627;50.920;12.050;2023-04-24T05:18:48;11.00;99.90
13123;DHT22;6627;50.920;12.050;2023-04-24T05:21:16;11.00;99.90
13123;DHT22;6627;50.920;12.050;2023-04-24T05:23:44;11.10;99.90
13123;DHT22;6627;50.920;12.050;2023-04-24T05:26:13;11.10;99.90
13123;DHT22;6627;50.920;12.050;2023-04-24T05:28:41;11.20;99.90
13123;DHT22;6627;50.920;12.050;2023-04-24T05:31:08;11.20;99.90
13123;DHT22;6627;50.920;12.050;2023-04-24T05:33:36;11.20;99.90
13123;DHT22;6627;50.920;12.050;2023-04-24T05:36:03;11.20;99.90
13123;DHT22;6627;50.920;12.050;2023-04-24T05:38:33;11.30;99.90
13123;DHT22;6627;50.920;12.050;2023-04-24T05:41:00;11.30;99.90
13123;DHT22;6627;50.920;12.050;2023-04-24T05:43:28;11.40;99.90
13123;DHT22;6627;50.920;12.050;2023-04-24T05:45:55;11.50;99.90
13123;DHT22;6627;50.920;12.050;2023-04-24T05:48:23;11.50;99.90
13123;DHT22;6627;50.920;12.050;2023-04-24T05:50:50;11.50;99.90
13123;DHT22;6627;50.920;12.050;2023-04-24T05:53:18;11.60;99.90
13123;DHT22;6627;50.920;12.050;2023-04-24T05:58:14;11.60;99.90
13123;DHT22;6627;50.920;12.050;2023-04-24T06:00:43;11.60;99.90
13123;DHT22;6627;50.920;12.050;2023-04-24T06:03:12;11.70;99.90
13123;DHT22;6627;50.920;12.050;2023-04-24T06:05:39;11.70;99.90
13123;DHT22;6627;50.920;12.050;2023-04-24T06:08:06;11.70;99.90
13123;DHT22;6627;50.920;12.050;2023-04-24T06:10:33;11.80;99.90
13123;DHT22;6627;50.920;12.050;2023-04-24T06:13:02;11.80;99.90
13123;DHT22;6627;50.920;12.050;2023-04-24T06:15:30;11.70;99.90
13123;DHT22;6627;50.920;12.050;2023-04-24T06:17:58;11.80;99.90
13123;DHT22;6627;50.920;12.050;2023-04-24T06:20:26;11.80;99.90
13123;DHT22;6627;50.920;12.050;2023-04-24T06:22:53;11.90;99.90
13123;DHT22;6627;50.920;12.050;2023-04-24T06:25:21;11.90;99.90
13123;DHT22;6627;50.920;12.050;2023-04-24T06:27:48;11.90;99.90
13123;DHT22;6627;50.920;12.050;2023-04-24T06:30:15;12.00;99.90
13123;DHT22;6627;50.920;12.050;2023-04-24T06:32:43;12.00;99.90
13123;DHT22;6627;50.920;12.050;2023-04-24T06:35:12;12.10;99.90
13123;DHT22;6627;50.920;12.050;2023-04-24T06:37:41;12.00;99.90
13123;DHT22;6627;50.920;12.050;2023-04-24T06:40:09;12.10;99.90
13123;DHT22;6627;50.920;12.050;2023-04-24T06:42:36;12.10;99.90
13123;DHT22;6627;50.920;12.050;2023-04-24T06:45:04;12.10;99.90
13123;DHT22;6627;50.920;12.050;2023-04-24T06:47:32;12.20;99.90
13123;DHT22;6627;50.920;12.050;2023-04-24T06:50:00;12.10;99.90
13123;DHT22;6627;50.920;12.050;2023-04-24T06:52:28;12.20;99.90
13123;DHT22;6627;50.920;12.050;2023-04-24T06:55:00;12.10;99.90
13123;DHT22;6627;50.920;12.050;2023-04-24T06:57:29;12.20;99.90
13123;DHT22;6627;50.920;12.050;2023-04-24T06:59:56;12.20;99.90
13123;DHT22;6627;50.920;12.050;2023-04-24T07:02:24;12.30;99.90
13123;DHT22;6627;50.920;12.050;2023-04-24T07:04:51;12.40;99.90
13123;DHT22;6627;50.920;12.050;2023-04-24T07:07:19;12.50;99.90
13123;DHT22;6627;50.920;12.050;2023-04-24T07:09:48;12.60;99.90
13123;DHT22;6627;50.920;12.050;2023-04-24T07:12:16;12.60;99.90
13123;DHT22;6627;50.920;12.050;2023-04-24T07:14:46;12.80;99.90
13123;DHT22;6627;50.920;12.050;2023-04-24T07:17:13;12.90;99.90
13123;DHT22;6627;50.920;12.050;2023-04-24T07:19:40;13.10;99.90
13123;DHT22;6627;50.920;12.050;2023-04-24T07:22:08;13.10;99.90
13123;DHT22;6627;50.920;12.050;2023-04-24T07:24:37;13.10;99.90
13123;DHT22;6627;50.920;12.050;2023-04-24T07:27:05;13.20;99.90
13123;DHT22;6627;50.920;12.050;2023-04-24T07:29:32;13.30;99.90
13123;DHT22;6627;50.920;12.050;2023-04-24T07:32:00;13.30;99.90
13123;DHT22;6627;50.920;12.050;2023-04-24T07:34:27;13.30;99.90
13123;DHT22;6627;50.920;12.050;2023-04-24T07:36:54;13.40;99.90
13123;DHT22;6627;50.920;12.050;2023-04-24T07:39:21;13.40;99.90
13123;DHT22;6627;50.920;12.050;2023-04-24T07:41:50;13.40;99.90
13123;DHT22;6627;50.920;12.050;2023-04-24T07:44:18;13.30;99.90
13123;DHT22;6627;50.920;12.050;2023-04-24T07:46:45;13.40;99.90
13123;DHT22;6627;50.920;12.050;2023-04-24T07:49:13;13.50;99.90
13123;DHT22;6627;50.920;12.050;2023-04-24T07:51:40;13.70;99.90
13123;DHT22;6627;50.920;12.050;2023-04-24T07:54:08;14.00;99.90
13123;DHT22;6627;50.920;12.050;2023-04-24T07:56:35;14.00;99.90
13123;DHT22;6627;50.920;12.050;2023-04-24T07:59:04;13.90;99.90
13123;DHT22;6627;50.920;12.050;2023-04-24T08:01:33;13.90;99.90
13123;DHT22;6627;50.920;12.050;2023-04-24T08:04:00;13.80;1.00
13123;DHT22;6627;50.920;12.050;2023-04-24T08:06:27;13.80;99.90
13123;DHT22;6627;50.920;12.050;2023-04-24T08:08:56;13.70;99.90
13123;DHT22;6627;50.920;12.050;2023-04-24T08:11:23;13.80;99.90
13123;DHT22;6627;50.920;12.050;2023-04-24T08:13:50;13.90;1.00
13123;DHT22;6627;50.920;12.050;2023-04-24T08:16:17;13.90;99.90
13123;DHT22;6627;50.920;12.050;2023-04-24T08:18:47;14.10;90.60
13123;DHT22;6627;50.920;12.050;2023-04-24T08:21:14;14.00;99.90
13123;DHT22;6627;50.920;12.050;2023-04-24T08:23:44;14.00;1.00
13123;DHT22;6627;50.920;12.050;2023-04-24T08:26:12;14.10;1.00
13123;DHT22;6627;50.920;12.050;2023-04-24T08:28:40;14.20;99.90
13123;DHT22;6627;50.920;12.050;2023-04-24T08:31:08;14.10;1.00
13123;DHT22;6627;50.920;12.050;2023-04-24T08:33:35;14.10;1.00
13123;DHT22;6627;50.920;12.050;2023-04-24T08:36:05;14.20;99.90
13123;DHT22;6627;50.920;12.050;2023-04-24T08:41:01;14.30;1.00
13123;DHT22;6627;50.920;12.050;2023-04-24T08:43:29;14.20;99.90
13123;DHT22;6627;50.920;12.050;2023-04-24T08:46:00;14.20;1.00
13123;DHT22;6627;50.920;12.050;2023-04-24T08:48:27;14.10;1.00
13123;DHT22;6627;50.920;12.050;2023-04-24T08:50:57;14.00;99.90
13123;DHT22;6627;50.920;12.050;2023-04-24T08:53:26;13.90;99.90
13123;DHT22;6627;50.920;12.050;2023-04-24T08:55:55;14.00;1.00
13123;DHT22;6627;50.920;12.050;2023-04-24T08:58:24;15.00;99.90
13123;DHT22;6627;50.920;12.050;2023-04-24T09:00:54;14.80;1.00
13123;DHT22;6627;50.920;12.050;2023-04-24T09:03:22;14.60;99.90
13123;DHT22;6627;50.920;12.050;2023-04-24T09:05:50;14.50;99.90
13123;DHT22;6627;50.920;12.050;2023-04-24T09:08:23;14.80;99.90
13123;DHT22;6627;50.920;12.050;2023-04-24T09:10:52;15.30;99.90
13123;DHT22;6627;50.920;12.050;2023-04-24T09:13:20;15.60;1.00
13123;DHT22;6627;50.920;12.050;2023-04-24T09:15:47;15.50;1.00
13123;DHT22;6627;50.920;12.050;2023-04-24T09:18:14;15.50;99.90
13123;DHT22;6627;50.920;12.050;2023-04-24T09:23:28;15.10;1.00
13123;DHT22;6627;50.920;12.050;2023-04-24T09:25:56;15.20;1.00
13123;DHT22;6627;50.920;12.050;2023-04-24T09:28:26;15.50;1.00
13123;DHT22;6627;50.920;12.050;2023-04-24T09:31:06;15.50;1.00
13123;DHT22;6627;50.920;12.050;2023-04-24T09:33:36;15.70;99.90
13123;DHT22;6627;50.920;12.050;2023-04-24T09:36:04;15.60;99.90
13123;DHT22;6627;50.920;12.050;2023-04-24T09:38:34;15.50;44.40
13123;DHT22;6627;50.920;12.050;2023-04-24T09:43:33;15.30;1.00
13123;DHT22;6627;50.920;12.050;2023-04-24T09:48:34;15.10;1.00
13123;DHT22;6627;50.920;12.050;2023-04-24T09:51:05;14.90;99.90
13123;DHT22;6627;50.920;12.050;2023-04-24T09:53:37;14.60;66.90
13123;DHT22;6627;50.920;12.050;2023-04-24T09:56:07;14.50;1.00
13123;DHT22;6627;50.920;12.050;2023-04-24T09:58:36;14.50;1.00
13123;DHT22;6627;50.920;12.050;2023-04-24T10:01:04;14.50;1.00
13123;DHT22;6627;50.920;12.050;2023-04-24T10:03:32;14.60;1.00
13123;DHT22;6627;50.920;12.050;2023-04-24T10:06:01;14.70;1.00
13123;DHT22;6627;50.920;12.050;2023-04-24T10:08:33;14.60;1.00
13123;DHT22;6627;50.920;12.050;2023-04-24T10:11:04;14.60;99.90
13123;DHT22;6627;50.920;12.050;2023-04-24T10:13:33;14.70;99.90
13123;DHT22;6627;50.920;12.050;2023-04-24T10:16:03;14.90;99.90
13123;DHT22;6627;50.920;12.050;2023-04-24T10:18:31;14.90;99.90
13123;DHT22;6627;50.920;12.050;2023-04-24T10:21:00;15.00;99.90
13123;DHT22;6627;50.920;12.050;2023-04-24T10:23:29;15.00;99.90
13123;DHT22;6627;50.920;12.050;2023-04-24T10:25:57;15.10;55.20
13123;DHT22;6627;50.920;12.050;2023-04-24T10:30:58;15.00;1.00
13123;DHT22;6627;50.920;12.050;2023-04-24T10:33:28;15.10;1.00
13123;DHT22;6627;50.920;12.050;2023-04-24T10:35:57;14.90;1.00
13123;DHT22;6627;50.920;12.050;2023-04-24T10:38:26;14.90;1.00
13123;DHT22;6627;50.920;12.050;2023-04-24T10:40:58;14.80;1.00
13123;DHT22;6627;50.920;12.050;2023-04-24T10:43:36;14.70;1.00
13123;DHT22;6627;50.920;12.050;2023-04-24T10:46:04;14.60;1.00
13123;DHT22;6627;50.920;12.050;2023-04-24T10:48:33;14.50;99.90
13123;DHT22;6627;50.920;12.050;2023-04-24T10:51:01;14.50;99.90
13123;DHT22;6627;50.920;12.050;2023-04-24T10:53:30;14.50;99.90
13123;DHT22;6627;50.920;12.050;2023-04-24T10:56:17;14.80;99.90
13123;DHT22;6627;50.920;12.050;2023-04-24T10:58:51;14.80;99.90
13123;DHT22;6627;50.920;12.050;2023-04-24T11:01:23;14.80;99.90
13123;DHT22;6627;50.920;12.050;2023-04-24T11:03:55;14.80;99.90
13123;DHT22;6627;50.920;12.050;2023-04-24T11:06:30;14.70;99.90
13123;DHT22;6627;50.920;12.050;2023-04-24T11:09:03;14.60;99.90
13123;DHT22;6627;50.920;12.050;2023-04-24T11:11:34;14.60;99.90
13123;DHT22;6627;50.920;12.050;2023-04-24T11:14:07;14.70;99.90
13123;DHT22;6627;50.920;12.050;2023-04-24T11:16:38;14.90;99.90
13123;DHT22;6627;50.920;12.050;2023-04-24T11:19:18;14.90;99.90
13123;DHT22;6627;50.920;12.050;2023-04-24T11:24:37;15.20;99.90
13123;DHT22;6627;50.920;12.050;2023-04-24T11:27:09;15.30;99.90
13123;DHT22;6627;50.920;12.050;2023-04-24T11:29:44;15.20;71.60
13123;DHT22;6627;50.920;12.050;2023-04-24T11:32:19;15.60;72.10
13123;DHT22;6627;50.920;12.050;2023-04-24T11:34:52;15.50;15.90
13123;DHT22;6627;50.920;12.050;2023-04-24T11:37:22;15.60;1.00
13123;DHT22;6627;50.920;12.050;2023-04-24T11:39:52;15.40;1.00
13123;DHT22;6627;50.920;12.050;2023-04-24T11:42:21;15.30;1.00
13123;DHT22;6627;50.920;12.050;2023-04-24T11:44:52;15.20;1.00
13123;DHT22;6627;50.920;12.050;2023-04-24T11:47:28;15.20;1.00
13123;DHT22;6627;50.920;12.050;2023-04-24T11:49:55;15.10;1.00
13123;DHT22;6627;50.920;12.050;2023-04-24T11:52:23;15.00;1.00
13123;DHT22;6627;50.920;12.050;2023-04-24T11:54:50;14.90;1.00
13123;DHT22;6627;50.920;12.050;2023-04-24T11:57:19;15.10;1.00
13123;DHT22;6627;50.920;12.050;2023-04-24T11:59:48;15.20;1.00
13123;DHT22;6627;50.920;12.050;2023-04-24T12:02:24;15.40;1.00
13123;DHT22;6627;50.920;12.050;2023-04-24T12:04:53;15.30;1.00
13123;DHT22;6627;50.920;12.050;2023-04-24T12:07:22;15.40;1.00
13123;DHT22;6627;50.920;12.050;2023-04-24T12:09:55;15.70;1.00
13123;DHT22;6627;50.920;12.050;2023-04-24T12:12:26;15.70;1.00
13123;DHT22;6627;50.920;12.050;2023-04-24T12:14:56;15.90;1.00
13123;DHT22;6627;50.920;12.050;2023-04-24T12:17:26;16.10;1.00
13123;DHT22;6627;50.920;12.050;2023-04-24T12:19:58;16.00;1.00
13123;DHT22;6627;50.920;12.050;2023-04-24T12:22:42;15.70;1.00
13123;DHT22;6627;50.920;12.050;2023-04-24T12:25:11;15.60;1.00
13123;DHT22;6627;50.920;12.050;2023-04-24T12:27:39;15.60;1.00
13123;DHT22;6627;50.920;12.050;2023-04-24T12:30:10;15.60;99.90
13123;DHT22;6627;50.920;12.050;2023-04-24T12:32:45;15.80;99.90
13123;DHT22;6627;50.920;12.050;2023-04-24T12:35:14;16.00;99.90
13123;DHT22;6627;50.920;12.050;2023-04-24T12:37:46;16.00;99.90
13123;DHT22;6627;50.920;12.050;2023-04-24T12:40:14;15.70;99.90
13123;DHT22;6627;50.920;12.050;2023-04-24T12:42:43;15.60;99.90
13123;DHT22;6627;50.920;12.050;2023-04-24T12:45:11;15.60;99.90
13123;DHT22;6627;50.920;12.050;2023-04-24T12:47:40;15.50;99.90
13123;DHT22;6627;50.920;12.050;2023-04-24T12:50:12;15.60;99.90
13123;DHT22;6627;50.920;12.050;2023-04-24T12:52:40;15.80;99.90
13123;DHT22;6627;50.920;12.050;2023-04-24T12:55:09;15.80;99.90
13123;DHT22;6627;50.920;12.050;2023-04-24T12:57:39;15.50;99.90
13123;DHT22;6627;50.920;12.050;2023-04-24T13:00:08;15.60;99.90
13123;DHT22;6627;50.920;12.050;2023-04-24T13:02:35;15.50;99.90
13123;DHT22;6627;50.920;12.050;2023-04-24T13:07:32;15.70;99.90
13123;DHT22;6627;50.920;12.050;2023-04-24T13:10:00;15.70;99.90
13123;DHT22;6627;50.920;12.050;2023-04-24T13:12:27;16.10;99.90
13123;DHT22;6627;50.920;12.050;2023-04-24T13:14:54;16.30;99.90
13123;DHT22;6627;50.920;12.050;2023-04-24T13:17:22;16.70;99.90
13123;DHT22;6627;50.920;12.050;2023-04-24T13:19:50;16.70;99.90
13123;DHT22;6627;50.920;12.050;2023-04-24T13:22:18;16.80;99.90
13123;DHT22;6627;50.920;12.050;2023-04-24T13:24:47;16.50;99.90
13123;DHT22;6627;50.920;12.050;2023-04-24T13:27:16;16.50;99.90
13123;DHT22;6627;50.920;12.050;2023-04-24T13:29:44;16.00;99.90
13123;DHT22;6627;50.920;12.050;2023-04-24T13:32:11;15.60;99.90
13123;DHT22;6627;50.920;12.050;2023-04-24T13:34:39;15.50;99.90
13123;DHT22;6627;50.920;12.050;2023-04-24T13:37:07;15.60;99.90
13123;DHT22;6627;50.920;12.050;2023-04-24T13:39:34;15.70;99.90
13123;DHT22;6627;50.920;12.050;2023-04-24T13:42:03;16.10;99.90
13123;DHT22;6627;50.920;12.050;2023-04-24T13:44:30;15.80;99.90
13123;DHT22;6627;50.920;12.050;2023-04-24T13:46:59;15.50;99.90
13123;DHT22;6627;50.920;12.050;2023-04-24T13:49:27;15.50;99.90
13123;DHT22;6627;50.920;12.050;2023-04-24T13:51:55;15.50;99.90
13123;DHT22;6627;50.920;12.050;2023-04-24T13:54:23;15.50;99.90
13123;DHT22;6627;50.920;12.050;2023-04-24T13:56:51;15.40;99.90
13123;DHT22;6627;50.920;12.050;2023-04-24T13:59:20;15.30;99.90
13123;DHT22;6627;50.920;12.050;2023-04-24T14:01:48;15.30;99.90
13123;DHT22;6627;50.920;12.050;2023-04-24T14:04:15;15.30;99.90
13123;DHT22;6627;50.920;12.050;2023-04-24T14:06:43;15.40;99.90
13123;DHT22;6627;50.920;12.050;2023-04-24T14:09:10;15.20;99.90
13123;DHT22;6627;50.920;12.050;2023-04-24T14:11:38;15.10;99.90
13123;DHT22;6627;50.920;12.050;2023-04-24T14:16:35;15.10;99.90
13123;DHT22;6627;50.920;12.050;2023-04-24T14:19:03;14.90;99.90
13123;DHT22;6627;50.920;12.050;2023-04-24T14:21:32;14.70;99.90
13123;DHT22;6627;50.920;12.050;2023-04-24T14:23:59;14.60;99.90
13123;DHT22;6627;50.920;12.050;2023-04-24T14:26:27;14.20;99.90
13123;DHT22;6627;50.920;12.050;2023-04-24T14:28:54;14.20;99.90
13123;DHT22;6627;50.920;12.050;2023-04-24T14:31:22;14.20;99.90
13123;DHT22;6627;50.920;12.050;2023-04-24T14:33:52;14.30;99.90
13123;DHT22;6627;50.920;12.050;2023-04-24T14:36:19;14.60;99.90
13123;DHT22;6627;50.920;12.050;2023-04-24T14:38:47;14.80;99.90
13123;DHT22;6627;50.920;12.050;2023-04-24T14:41:14;14.70;99.90
13123;DHT22;6627;50.920;12.050;2023-04-24T14:43:41;14.80;99.90
13123;DHT22;6627;50.920;12.050;2023-04-24T14:46:09;14.90;99.90
13123;DHT22;6627;50.920;12.050;2023-04-24T14:48:36;14.80;99.90
13123;DHT22;6627;50.920;12.050;2023-04-24T14:51:04;14.70;99.90
13123;DHT22;6627;50.920;12.050;2023-04-24T14:53:31;14.60;99.90
13123;DHT22;6627;50.920;12.050;2023-04-24T14:55:59;14.40;99.90
13123;DHT22;6627;50.920;12.050;2023-04-24T14:58:26;14.80;99.90
13123;DHT22;6627;50.920;12.050;2023-04-24T15:00:53;15.00;99.90
13123;DHT22;6627;50.920;12.050;2023-04-24T15:03:21;14.80;99.90
13123;DHT22;6627;50.920;12.050;2023-04-24T15:05:49;14.80;99.90
13123;DHT22;6627;50.920;12.050;2023-04-24T15:08:18;14.70;99.90
13123;DHT22;6627;50.920;12.050;2023-04-24T15:10:47;14.60;99.90
13123;DHT22;6627;50.920;12.050;2023-04-24T15:13:15;14.70;99.90
13123;DHT22;6627;50.920;12.050;2023-04-24T15:15:43;14.60;99.90
13123;DHT22;6627;50.920;12.050;2023-04-24T15:18:11;14.60;99.90
13123;DHT22;6627;50.920;12.050;2023-04-24T15:20:38;14.40;99.90
13123;DHT22;6627;50.920;12.050;2023-04-24T15:23:07;14.40;99.90
13123;DHT22;6627;50.920;12.050;2023-04-24T15:25:37;14.60;99.90
13123;DHT22;6627;50.920;12.050;2023-04-24T15:28:05;14.40;99.90
13123;DHT22;6627;50.920;12.050;2023-04-24T15:30:33;14.50;99.90
13123;DHT22;6627;50.920;12.050;2023-04-24T15:33:01;14.40;99.90
13123;DHT22;6627;50.920;12.050;2023-04-24T15:35:29;14.10;99.90
13123;DHT22;6627;50.920;12.050;2023-04-24T15:37:56;14.10;99.90
13123;DHT22;6627;50.920;12.050;2023-04-24T15:40:24;14.40;99.90
13123;DHT22;6627;50.920;12.050;2023-04-24T15:42:52;14.20;99.90
13123;DHT22;6627;50.920;12.050;2023-04-24T15:45:20;14.00;99.90
13123;DHT22;6627;50.920;12.050;2023-04-24T15:47:47;13.90;99.90
13123;DHT22;6627;50.920;12.050;2023-04-24T15:50:15;13.80;99.90
13123;DHT22;6627;50.920;12.050;2023-04-24T15:52:46;13.70;99.90
13123;DHT22;6627;50.920;12.050;2023-04-24T15:55:13;13.60;99.90
13123;DHT22;6627;50.920;12.050;2023-04-24T15:57:41;13.60;1.00
13123;DHT22;6627;50.920;12.050;2023-04-24T16:00:11;13.70;1.00
13123;DHT22;6627;50.920;12.050;2023-04-24T16:02:39;13.60;1.00
13123;DHT22;6627;50.920;12.050;2023-04-24T16:05:07;13.50;1.00
13123;DHT22;6627;50.920;12.050;2023-04-24T16:07:37;13.50;1.00
13123;DHT22;6627;50.920;12.050;2023-04-24T16:10:05;13.60;1.00
13123;DHT22;6627;50.920;12.050;2023-04-24T16:12:33;13.60;1.00
13123;DHT22;6627;50.920;12.050;2023-04-24T16:15:01;13.50;1.00
13123;DHT22;6627;50.920;12.050;2023-04-24T16:17:30;13.60;1.00
13123;DHT22;6627;50.920;12.050;2023-04-24T16:19:57;13.70;1.00
13123;DHT22;6627;50.920;12.050;2023-04-24T16:22:25;13.90;1.00
13123;DHT22;6627;50.920;12.050;2023-04-24T16:24:52;14.00;1.00
13123;DHT22;6627;50.920;12.050;2023-04-24T16:27:20;14.00;1.00